KPCD/PCD METAR and TAF weather

Enter ICAO airport designator
Station Type Date Time Source
KPCD METAR 2019/12/09 05:55 UTC NOAA

KPCD 090555Z AUTO 20017G22KT 180V240 10SM BKN020 BKN065 11/08 A2976 RMK AO2 T01130082 10115 20080 401151009


Station Type Date Time Source
KPCD Decoded METAR 2019/12/09 05:55 UTC NOAA

Station name not available
Dec 09, 2019 - 12:55 AM EST / 2019.12.09 0555 UTC
Wind: from the SSW (200 degrees) at 20 MPH (17 KT) gusting to 25 MPH (22 KT) (direction variable):0
Visibility: 10 mile(s):0
Sky conditions: mostly cloudy
Temperature: 52.3 F (11.3 C)
Dew Point: 46.8 F (8.2 C)
Relative Humidity: 81%
Pressure (altimeter): 29.76 in. Hg (1007 hPa)
ob: KPCD 090555Z AUTO 20017G22KT 180V240 10SM BKN020 BKN065 11/08 A2976 RMK AO2 T01130082 10115 20080 401151009
cycle: 6

Station Type Date Time Source
KPCD TAF UTC NOAA

Error!

Example: see airport list